Latest Weather Observations for Hillarys Point Boat Harbour
Issued at 6:21 pm WST Sunday 10 May 2026 (issued every 10 minutes, with the page automatically refreshed every 10 minutes)
| Station Details | ID: 009265 | Name: HILLARYS BOAT HARBOUR NTC AWS | Lat: -31.83 | Lon: 115.74 | Height: 0.0 m |
| Date/Time WST |
Temp °C |
App Temp °C |
Dew Point °C |
Rel Hum % |
Delta-T °C |
Wind | Press QNH hPa |
Press MSL hPa |
Rain since 9am mm |
||||
|---|---|---|---|---|---|---|---|---|---|---|---|---|---|
| Dir | Spd km/h |
Gust km/h |
Spd kts |
Gust kts |
|||||||||
| 10/06:00pm | 19.6 | - | - | - | - | SSE | 2 | 6 | 1 | 3 | 1022.5 | 1022.5 | - |
| 10/05:30pm | 20.3 | - | - | - | - | SW | 6 | 9 | 3 | 5 | 1022.2 | 1022.2 | - |
| 10/05:00pm | 20.6 | - | - | - | - | SSW | 6 | 9 | 3 | 5 | 1022.0 | 1022.0 | - |
| 10/04:30pm | 21.6 | - | - | - | - | SW | 4 | 9 | 2 | 5 | 1022.1 | 1022.1 | - |
| 10/04:00pm | 24.4 | - | - | - | - | NE | 7 | 15 | 4 | 8 | 1022.1 | 1022.1 | - |
| 10/03:30pm | 24.1 | - | - | - | - | NNE | 9 | 19 | 5 | 10 | 1022.1 | 1022.1 | - |
| 10/03:00pm | 23.8 | - | - | - | - | N | 11 | 22 | 6 | 12 | 1022.1 | 1022.1 | - |
| 10/02:30pm | 23.8 | - | - | - | - | N | 7 | 17 | 4 | 9 | 1022.2 | 1022.2 | - |
| 10/02:00pm | 23.2 | - | - | - | - | NNE | 7 | 17 | 4 | 9 | 1022.6 | 1022.6 | - |
| 10/01:30pm | 22.9 | - | - | - | - | NNE | 11 | 24 | 6 | 13 | 1023.1 | 1023.1 | - |
| 10/01:00pm | 22.7 | - | - | - | - | N | 15 | 24 | 8 | 13 | 1023.4 | 1023.4 | - |
| 10/12:30pm | 22.2 | - | - | - | - | N | 11 | 24 | 6 | 13 | 1023.8 | 1023.8 | - |
| 10/12:00pm | 21.7 | - | - | - | - | NNE | 11 | 20 | 6 | 11 | 1024.2 | 1024.2 | - |
| 10/11:30am | 21.2 | - | - | - | - | NNE | 13 | 24 | 7 | 13 | 1024.8 | 1024.8 | - |
| 10/11:00am | 20.8 | - | - | - | - | NNE | 13 | 24 | 7 | 13 | 1024.9 | 1024.9 | - |
| 10/10:30am | 19.8 | - | - | - | - | NNE | 15 | 24 | 8 | 13 | 1025.2 | 1025.2 | - |
| 10/10:00am | 19.0 | - | - | - | - | NNE | 15 | 32 | 8 | 17 | 1025.6 | 1025.6 | - |
| 10/09:30am | 18.0 | - | - | - | - | NE | 15 | 28 | 8 | 15 | 1025.8 | 1025.8 | - |
| 10/09:00am | 16.7 | - | - | - | - | NE | 11 | 20 | 6 | 11 | 1025.9 | 1025.9 | - |
| 10/08:30am | 15.5 | - | - | - | - | NE | 13 | 22 | 7 | 12 | 1025.7 | 1025.7 | - |
| 10/08:00am | 14.6 | - | - | - | - | NE | 15 | 24 | 8 | 13 | 1025.5 | 1025.5 | - |
| 10/07:30am | 14.1 | - | - | - | - | NE | 13 | 20 | 7 | 11 | 1025.7 | 1025.7 | - |
| 10/07:00am | 13.7 | - | - | - | - | NE | 15 | 24 | 8 | 13 | 1025.3 | 1025.3 | - |
| 10/06:30am | 13.4 | - | - | - | - | ENE | 15 | 22 | 8 | 12 | 1025.3 | 1025.3 | - |
| 10/06:00am | 14.2 | - | - | - | - | NE | 15 | 24 | 8 | 13 | 1025.1 | 1025.1 | - |
| 10/05:30am | 14.3 | - | - | - | - | NE | 15 | 22 | 8 | 12 | 1024.9 | 1024.9 | - |
| 10/05:00am | 13.6 | - | - | - | - | ENE | 13 | 20 | 7 | 11 | 1024.6 | 1024.6 | - |
| 10/04:30am | 13.7 | - | - | - | - | ENE | 13 | 19 | 7 | 10 | 1024.5 | 1024.5 | - |
| 10/04:00am | 14.2 | - | - | - | - | ENE | 13 | 19 | 7 | 10 | 1024.2 | 1024.2 | - |
| 10/03:30am | 14.4 | - | - | - | - | ENE | 13 | 20 | 7 | 11 | 1024.2 | 1024.2 | - |
| 10/03:00am | 14.5 | - | - | - | - | ENE | 15 | 20 | 8 | 11 | 1024.2 | 1024.2 | - |
| 10/02:30am | 14.6 | - | - | - | - | NE | 11 | 19 | 6 | 10 | 1024.3 | 1024.3 | - |
| 10/02:00am | 14.4 | - | - | - | - | NE | 11 | 17 | 6 | 9 | 1024.3 | 1024.3 | - |
| 10/01:30am | 14.3 | - | - | - | - | ENE | 11 | 15 | 6 | 8 | 1024.4 | 1024.4 | - |
| 10/01:00am | 14.6 | - | - | - | - | ENE | 11 | 17 | 6 | 9 | 1024.4 | 1024.4 | - |
| 10/12:30am | 14.8 | - | - | - | - | ENE | 9 | 13 | 5 | 7 | 1024.5 | 1024.5 | - |
| 10/12:00am | 15.1 | - | - | - | - | ENE | 9 | 13 | 5 | 7 | 1024.6 | 1024.6 | - |
| Date/Time WST |
Temp °C |
App Temp °C |
Dew Point °C |
Rel Hum % |
Delta-T °C |
Wind | Press QNH hPa |
Press MSL hPa |
Rain since 9am mm |
||||
|---|---|---|---|---|---|---|---|---|---|---|---|---|---|
| Dir | Spd km/h |
Gust km/h |
Spd kts |
Gust kts |
|||||||||
| 09/11:30pm | 15.5 | - | - | - | - | ENE | 7 | 13 | 4 | 7 | 1024.8 | 1024.8 | - |
| 09/11:00pm | 15.6 | - | - | - | - | ENE | 7 | 9 | 4 | 5 | 1025.1 | 1025.1 | - |
| 09/10:30pm | 16.0 | - | - | - | - | ENE | 7 | 11 | 4 | 6 | 1025.2 | 1025.2 | - |
| 09/10:00pm | 16.8 | - | - | - | - | ENE | 7 | 9 | 4 | 5 | 1025.1 | 1025.1 | - |
| 09/09:30pm | 17.3 | - | - | - | - | ENE | 9 | 13 | 5 | 7 | 1025.0 | 1025.0 | - |
| 09/09:00pm | 17.5 | - | - | - | - | ENE | 9 | 13 | 5 | 7 | 1024.9 | 1024.9 | - |
| 09/08:30pm | 18.0 | - | - | - | - | ENE | 7 | 13 | 4 | 7 | 1024.6 | 1024.6 | - |
| 09/08:00pm | 18.7 | - | - | - | - | ENE | 7 | 13 | 4 | 7 | 1024.5 | 1024.5 | - |
| 09/07:30pm | 19.4 | - | - | - | - | ENE | 7 | 13 | 4 | 7 | 1024.3 | 1024.3 | - |
| 09/07:00pm | 19.9 | - | - | - | - | ENE | 6 | 11 | 3 | 6 | 1024.2 | 1024.2 | - |
| 09/06:30pm | 20.6 | - | - | - | - | ENE | 6 | 11 | 3 | 6 | 1024.2 | 1024.2 | - |
| 09/06:00pm | 21.4 | - | - | - | - | E | 4 | 9 | 2 | 5 | 1024.0 | 1024.0 | - |
| 09/05:30pm | 22.7 | - | - | - | - | ENE | 6 | 9 | 3 | 5 | 1023.9 | 1023.9 | - |
| 09/05:00pm | 23.5 | - | - | - | - | ENE | 7 | 13 | 4 | 7 | 1023.8 | 1023.8 | - |
| 09/04:30pm | 23.6 | - | - | - | - | ENE | 7 | 17 | 4 | 9 | 1023.7 | 1023.7 | - |
| 09/04:00pm | 23.5 | - | - | - | - | NE | 9 | 17 | 5 | 9 | 1023.7 | 1023.7 | - |
| 09/03:30pm | 23.3 | - | - | - | - | ENE | 11 | 19 | 6 | 10 | 1023.6 | 1023.6 | - |
| 09/03:00pm | 23.7 | - | - | - | - | ENE | 7 | 19 | 4 | 10 | 1023.3 | 1023.3 | - |
| 09/02:30pm | 22.9 | - | - | - | - | NE | 13 | 22 | 7 | 12 | 1023.2 | 1023.2 | - |
| 09/02:00pm | 23.0 | - | - | - | - | ENE | 9 | 24 | 5 | 13 | 1023.3 | 1023.3 | - |
| 09/01:30pm | 22.6 | - | - | - | - | ENE | 11 | 22 | 6 | 12 | 1023.6 | 1023.6 | - |
| 09/01:00pm | 22.6 | - | - | - | - | NE | 13 | 28 | 7 | 15 | 1023.8 | 1023.8 | - |
| 09/12:30pm | 22.0 | - | - | - | - | NNE | 13 | 28 | 7 | 15 | 1024.4 | 1024.4 | - |
| 09/12:00pm | 21.0 | - | - | - | - | NNE | 15 | 24 | 8 | 13 | 1025.1 | 1025.1 | - |
| 09/11:30am | 20.5 | - | - | - | - | NE | 17 | 30 | 9 | 16 | 1025.7 | 1025.7 | - |
| 09/11:00am | 19.8 | - | - | - | - | NE | 13 | 28 | 7 | 15 | 1026.3 | 1026.3 | - |
| 09/10:30am | 19.0 | - | - | - | - | NNE | 19 | 35 | 10 | 19 | 1026.6 | 1026.6 | - |
| 09/10:00am | 18.6 | - | - | - | - | NE | 11 | 24 | 6 | 13 | 1027.0 | 1027.0 | - |
| 09/09:30am | 17.4 | - | - | - | - | NE | 19 | 33 | 10 | 18 | 1026.9 | 1026.9 | - |
| 09/09:00am | 16.3 | - | - | - | - | NE | 22 | 35 | 12 | 19 | 1027.2 | 1027.2 | - |
| 09/08:30am | 15.4 | - | - | - | - | NE | 20 | 37 | 11 | 20 | 1027.1 | 1027.1 | - |
| 09/08:00am | 14.8 | - | - | - | - | NE | 17 | 30 | 9 | 16 | 1027.1 | 1027.1 | - |
| 09/07:30am | 14.1 | - | - | - | - | ENE | 15 | 28 | 8 | 15 | 1027.0 | 1027.0 | - |
| 09/07:00am | 13.7 | - | - | - | - | ENE | 15 | 24 | 8 | 13 | 1026.8 | 1026.8 | - |
| 09/06:30am | 14.2 | - | - | - | - | NE | 17 | 28 | 9 | 15 | 1026.7 | 1026.7 | - |
| 09/06:00am | 14.3 | - | - | - | - | NE | 13 | 20 | 7 | 11 | 1026.7 | 1026.7 | - |
| 09/05:30am | 14.5 | - | - | - | - | NE | 7 | 15 | 4 | 8 | 1026.8 | 1026.8 | - |
| 09/05:00am | 15.1 | - | - | - | - | NNE | 6 | 13 | 3 | 7 | 1026.5 | 1026.5 | - |
| 09/04:30am | 15.3 | - | - | - | - | NE | 4 | 11 | 2 | 6 | 1026.2 | 1026.2 | - |
| 09/04:00am | 15.7 | - | - | - | - | NE | 7 | 13 | 4 | 7 | 1026.0 | 1026.0 | - |
| 09/03:30am | 16.2 | - | - | - | - | NNE | 6 | 13 | 3 | 7 | 1025.9 | 1025.9 | - |
| 09/03:00am | 16.6 | - | - | - | - | NE | 19 | 33 | 10 | 18 | 1025.3 | 1025.3 | - |
| 09/02:30am | 16.7 | - | - | - | - | NE | 19 | 33 | 10 | 18 | 1025.4 | 1025.4 | - |
| 09/02:00am | 16.9 | - | - | - | - | NE | 15 | 32 | 8 | 17 | 1025.7 | 1025.7 | - |
| 09/01:30am | 17.3 | - | - | - | - | ENE | 13 | 24 | 7 | 13 | 1025.7 | 1025.7 | - |
| 09/01:00am | 17.6 | - | - | - | - | ENE | 11 | 22 | 6 | 12 | 1025.7 | 1025.7 | - |
| 09/12:30am | 17.9 | - | - | - | - | NE | 11 | 17 | 6 | 9 | 1025.8 | 1025.8 | - |
| 09/12:00am | 18.2 | - | - | - | - | NE | 9 | 15 | 5 | 8 | 1025.6 | 1025.6 | - |
| Date/Time WST |
Temp °C |
App Temp °C |
Dew Point °C |
Rel Hum % |
Delta-T °C |
Wind | Press QNH hPa |
Press MSL hPa |
Rain since 9am mm |
||||
|---|---|---|---|---|---|---|---|---|---|---|---|---|---|
| Dir | Spd km/h |
Gust km/h |
Spd kts |
Gust kts |
|||||||||
| 08/11:30pm | 18.2 | - | - | - | - | NE | 7 | 15 | 4 | 8 | 1025.6 | 1025.6 | - |
| 08/11:00pm | 18.3 | - | - | - | - | NE | 6 | 9 | 3 | 5 | 1025.8 | 1025.8 | - |
| 08/10:30pm | 18.7 | - | - | - | - | NE | 6 | 11 | 3 | 6 | 1026.0 | 1026.0 | - |
| 08/10:00pm | 19.0 | - | - | - | - | ENE | 13 | 20 | 7 | 11 | 1025.9 | 1025.9 | - |
| 08/09:30pm | 19.0 | - | - | - | - | ENE | 11 | 22 | 6 | 12 | 1025.7 | 1025.7 | - |
| 08/09:00pm | 18.7 | - | - | - | - | ENE | 6 | 9 | 3 | 5 | 1025.8 | 1025.8 | - |
| 08/08:30pm | 19.1 | - | - | - | - | ENE | 7 | 13 | 4 | 7 | 1025.7 | 1025.7 | - |
| 08/08:00pm | 19.5 | - | - | - | - | E | 7 | 13 | 4 | 7 | 1025.7 | 1025.7 | - |
| 08/07:30pm | 19.9 | - | - | - | - | ENE | 7 | 17 | 4 | 9 | 1025.4 | 1025.4 | - |
| 08/07:00pm | 20.3 | - | - | - | - | ENE | 7 | 13 | 4 | 7 | 1025.6 | 1025.6 | - |
| 08/06:30pm | 20.9 | - | - | - | - | ENE | 9 | 17 | 5 | 9 | 1025.6 | 1025.6 | - |
| 08/06:00pm | 21.5 | - | - | - | - | ENE | 9 | 22 | 5 | 12 | 1025.4 | 1025.4 | - |
| 08/05:30pm | 22.1 | - | - | - | - | ENE | 13 | 32 | 7 | 17 | 1025.1 | 1025.1 | - |
| 08/05:00pm | 23.0 | - | - | - | - | ENE | 13 | 26 | 7 | 14 | 1024.9 | 1024.9 | - |
| 08/04:30pm | 23.3 | - | - | - | - | ENE | 15 | 32 | 8 | 17 | 1024.7 | 1024.7 | - |
| 08/04:00pm | 23.5 | - | - | - | - | E | 13 | 26 | 7 | 14 | 1024.8 | 1024.8 | - |
| 08/03:30pm | 23.5 | - | - | - | - | ENE | 13 | 22 | 7 | 12 | 1024.8 | 1024.8 | - |
| 08/03:00pm | 23.4 | - | - | - | - | ENE | 15 | 26 | 8 | 14 | 1024.7 | 1024.7 | - |
| 08/02:30pm | 23.3 | - | - | - | - | NE | 13 | 26 | 7 | 14 | 1024.9 | 1024.9 | - |
| 08/02:00pm | 23.4 | - | - | - | - | ENE | 13 | 22 | 7 | 12 | 1025.3 | 1025.3 | - |
| 08/01:30pm | 22.4 | - | - | - | - | NE | 15 | 28 | 8 | 15 | 1025.7 | 1025.7 | - |
| 08/01:00pm | 21.9 | - | - | - | - | NE | 15 | 30 | 8 | 16 | 1026.1 | 1026.1 | - |
| 08/12:30pm | 21.0 | - | - | - | - | ENE | 17 | 28 | 9 | 15 | 1026.6 | 1026.6 | - |
| 08/12:00pm | 20.7 | - | - | - | - | NE | 13 | 26 | 7 | 14 | 1027.3 | 1027.3 | - |
| 08/11:30am | 20.1 | - | - | - | - | ENE | 19 | 28 | 10 | 15 | 1027.9 | 1027.9 | - |
| 08/11:00am | 19.5 | - | - | - | - | NE | 17 | 33 | 9 | 18 | 1028.2 | 1028.2 | - |
| 08/10:30am | 19.1 | - | - | - | - | NE | 20 | 33 | 11 | 18 | 1028.5 | 1028.5 | - |
| 08/10:00am | 18.3 | - | - | - | - | ENE | 20 | 30 | 11 | 16 | 1028.9 | 1028.9 | - |
| 08/09:30am | 17.7 | - | - | - | - | NE | 17 | 32 | 9 | 17 | 1029.1 | 1029.1 | - |
| 08/09:00am | 17.0 | - | - | - | - | NE | 17 | 33 | 9 | 18 | 1029.5 | 1029.5 | - |
| 08/08:30am | 16.4 | - | - | - | - | NE | 15 | 24 | 8 | 13 | 1029.6 | 1029.6 | - |
| 08/08:00am | 15.7 | - | - | - | - | ENE | 13 | 20 | 7 | 11 | 1029.5 | 1029.5 | - |
| 08/07:30am | 14.9 | - | - | - | - | ENE | 7 | 11 | 4 | 6 | 1029.3 | 1029.3 | - |
| 08/07:00am | 14.4 | - | - | - | - | ENE | 6 | 11 | 3 | 6 | 1029.0 | 1029.0 | - |
| 08/06:30am | 14.5 | - | - | - | - | ENE | 6 | 9 | 3 | 5 | 1028.8 | 1028.8 | - |
| 08/06:00am | 14.9 | - | - | - | - | ENE | 6 | 13 | 3 | 7 | 1028.8 | 1028.8 | - |
| 08/05:30am | 15.2 | - | - | - | - | ENE | 6 | 9 | 3 | 5 | 1028.7 | 1028.7 | - |
| 08/05:00am | 15.8 | - | - | - | - | NE | 11 | 19 | 6 | 10 | 1028.6 | 1028.6 | - |
| 08/04:30am | 15.6 | - | - | - | - | ENE | 11 | 17 | 6 | 9 | 1028.4 | 1028.4 | - |
| 08/04:00am | 15.3 | - | - | - | - | ENE | 7 | 11 | 4 | 6 | 1028.3 | 1028.3 | - |
| 08/03:30am | 15.5 | - | - | - | - | ENE | 6 | 9 | 3 | 5 | 1028.3 | 1028.3 | - |
| 08/03:00am | 15.9 | - | - | - | - | ENE | 7 | 11 | 4 | 6 | 1028.2 | 1028.2 | - |
| 08/02:30am | 16.1 | - | - | - | - | ENE | 7 | 13 | 4 | 7 | 1028.1 | 1028.1 | - |
| 08/02:00am | 16.3 | - | - | - | - | ENE | 6 | 13 | 3 | 7 | 1028.0 | 1028.0 | - |
| 08/01:30am | 16.2 | - | - | - | - | E | 4 | 9 | 2 | 5 | 1028.0 | 1028.0 | - |
| 08/01:00am | 16.4 | - | - | - | - | E | 6 | 11 | 3 | 6 | 1028.0 | 1028.0 | - |
| 08/12:30am | 16.2 | - | - | - | - | E | 4 | 11 | 2 | 6 | 1028.0 | 1028.0 | - |
| 08/12:00am | 16.4 | - | - | - | - | ESE | 2 | 6 | 1 | 3 | 1028.2 | 1028.2 | - |
| Date/Time WST |
Temp °C |
App Temp °C |
Dew Point °C |
Rel Hum % |
Delta-T °C |
Wind | Press QNH hPa |
Press MSL hPa |
Rain since 9am mm |
||||
|---|---|---|---|---|---|---|---|---|---|---|---|---|---|
| Dir | Spd km/h |
Gust km/h |
Spd kts |
Gust kts |
|||||||||
| 07/11:30pm | 16.6 | - | - | - | - | SE | 2 | 4 | 1 | 2 | 1027.9 | 1027.9 | - |
| 07/11:00pm | 16.6 | - | - | - | - | CALM | 0 | 2 | 0 | 1 | 1027.9 | 1027.9 | - |
| 07/10:30pm | 17.7 | - | - | - | - | ESE | 2 | 7 | 1 | 4 | 1028.0 | 1028.0 | - |
| 07/10:00pm | 18.1 | - | - | - | - | E | 2 | 6 | 1 | 3 | 1027.8 | 1027.8 | - |
| 07/09:30pm | 18.4 | - | - | - | - | E | 4 | 9 | 2 | 5 | 1027.6 | 1027.6 | - |
| 07/09:00pm | 18.3 | - | - | - | - | ESE | 4 | 9 | 2 | 5 | 1027.5 | 1027.5 | - |
| 07/08:30pm | 18.9 | - | - | - | - | E | 6 | 11 | 3 | 6 | 1027.3 | 1027.3 | - |
| 07/08:00pm | 19.1 | - | - | - | - | ESE | 4 | 11 | 2 | 6 | 1027.3 | 1027.3 | - |
| 07/07:30pm | 19.4 | - | - | - | - | E | 4 | 11 | 2 | 6 | 1027.2 | 1027.2 | - |
| 07/07:00pm | 19.8 | - | - | - | - | ESE | 2 | 7 | 1 | 4 | 1027.0 | 1027.0 | - |
| 07/06:30pm | 20.5 | - | - | - | - | E | 4 | 11 | 2 | 6 | 1026.8 | 1026.8 | - |
Latest Capital City Observations: Canberra | Sydney | Melbourne | Brisbane | Adelaide | Perth | Hobart | Darwin
Other formats
Comma delimited format used in spreadsheet applications
http://www.bom.gov.au/fwo/IDW60901/IDW60901.95605.axf
JavaScript Object Notation format (JSON) in row-major order
http://www.bom.gov.au/fwo/IDW60901/IDW60901.95605.json
Data quality
Most of these data are generated automatically and are frequently updated. Quality checks on data are not normally performed. It is possible for incorrect values to appear. Refer to information at About Latest Weather Observations and please check the disclaimer before using these data.
